createdAt,value
2022-09-28T00:00:58.624Z,990.66
2022-09-28T00:01:59.008Z,990.66
2022-09-28T00:02:59.363Z,990.65
2022-09-28T00:03:59.488Z,990.64
2022-09-28T00:04:59.764Z,990.66
2022-09-28T00:06:00.086Z,990.68
2022-09-28T00:07:00.325Z,990.69
2022-09-28T00:08:00.604Z,990.69
2022-09-28T00:09:00.903Z,990.71
2022-09-28T00:10:01.198Z,990.67
2022-09-28T00:11:01.491Z,990.70
2022-09-28T00:12:01.762Z,990.69
2022-09-28T00:13:02.092Z,990.72
2022-09-28T00:14:02.339Z,990.75
2022-09-28T00:15:02.604Z,990.73
2022-09-28T00:16:02.932Z,990.73
2022-09-28T00:17:03.169Z,990.74
2022-09-28T00:18:03.438Z,990.77
2022-09-28T00:19:03.727Z,990.77
2022-09-28T00:20:04.018Z,990.73
2022-09-28T00:21:04.309Z,990.75
2022-09-28T00:22:04.593Z,990.73
2022-09-28T00:23:04.879Z,990.70
2022-09-28T00:24:05.177Z,990.69
2022-09-28T00:25:05.457Z,990.69
2022-09-28T00:26:05.758Z,990.71
2022-09-28T00:27:06.015Z,990.71
2022-09-28T00:28:06.299Z,990.70
2022-09-28T00:29:06.591Z,990.67
2022-09-28T00:30:06.876Z,990.70
2022-09-28T00:31:07.233Z,990.67
2022-09-28T00:32:07.452Z,990.72
2022-09-28T00:33:07.769Z,990.69
2022-09-28T00:34:08.037Z,990.68
2022-09-28T00:35:08.295Z,990.71
2022-09-28T00:36:08.610Z,990.68
2022-09-28T00:37:08.871Z,990.68
2022-09-28T00:38:09.135Z,990.70
2022-09-28T00:39:09.488Z,990.69
2022-09-28T00:40:09.716Z,990.67
2022-09-28T00:41:10.017Z,990.69
2022-09-28T00:42:10.298Z,990.68
2022-09-28T00:43:10.596Z,990.72
2022-09-28T00:44:10.915Z,990.70
2022-09-28T00:45:11.166Z,990.67
2022-09-28T00:46:11.515Z,990.66
2022-09-28T00:47:11.787Z,990.66
2022-09-28T00:48:12.059Z,990.69
2022-09-28T00:49:12.380Z,990.72
2022-09-28T00:50:12.617Z,990.62
2022-09-28T00:51:12.936Z,990.61
2022-09-28T00:52:13.213Z,990.62
2022-09-28T00:53:13.477Z,990.59
2022-09-28T00:54:13.770Z,990.56
2022-09-28T00:55:14.048Z,990.60
2022-09-28T00:56:14.359Z,990.54
2022-09-28T00:57:14.614Z,990.53
2022-09-28T00:58:14.913Z,990.56
2022-09-28T00:59:15.199Z,990.53
2022-09-28T01:00:15.477Z,990.56
2022-09-28T01:01:15.810Z,990.54
2022-09-28T01:02:16.213Z,990.50
2022-09-28T01:03:16.344Z,990.51
2022-09-28T01:04:16.640Z,990.52
2022-09-28T01:05:16.946Z,990.49
2022-09-28T01:06:17.196Z,990.49
2022-09-28T01:07:17.487Z,990.51
2022-09-28T01:08:17.797Z,990.52
2022-09-28T01:09:18.218Z,990.51
2022-09-28T01:10:18.300Z,990.48
2022-09-28T01:11:18.605Z,990.46
2022-09-28T01:12:18.849Z,990.43
2022-09-28T01:13:19.142Z,990.47
2022-09-28T01:14:19.415Z,990.40
2022-09-28T01:15:19.745Z,990.39
2022-09-28T01:16:20.048Z,990.42
2022-09-28T01:17:20.311Z,990.45
2022-09-28T01:18:20.611Z,990.42
2022-09-28T01:19:20.867Z,990.41
2022-09-28T01:20:21.137Z,990.39
2022-09-28T01:21:21.451Z,990.40
2022-09-28T01:22:21.702Z,990.47
2022-09-28T01:23:21.977Z,990.44
2022-09-28T01:24:22.263Z,990.42
2022-09-28T01:25:22.528Z,990.40
2022-09-28T01:26:22.827Z,990.42
2022-09-28T01:27:23.120Z,990.44
2022-09-28T01:28:23.388Z,990.39
2022-09-28T01:29:23.678Z,990.42
2022-09-28T01:30:23.960Z,990.43
2022-09-28T01:31:24.310Z,990.40
2022-09-28T01:32:24.529Z,990.39
2022-09-28T01:33:24.818Z,990.40
2022-09-28T01:34:25.100Z,990.40
2022-09-28T01:35:25.410Z,990.39
2022-09-28T01:36:25.680Z,990.35
2022-09-28T01:37:25.930Z,990.37
2022-09-28T01:38:26.220Z,990.37
2022-09-28T01:39:26.494Z,990.38
2022-09-28T01:40:26.818Z,990.34
2022-09-28T01:41:27.093Z,990.31
2022-09-28T01:42:27.308Z,990.35
2022-09-28T01:43:27.633Z,990.31
2022-09-28T01:44:27.869Z,990.35
2022-09-28T01:45:28.207Z,990.29
2022-09-28T01:46:28.475Z,990.33
2022-09-28T01:47:28.707Z,990.33
2022-09-28T01:48:29.001Z,990.36
2022-09-28T01:49:29.303Z,990.35
2022-09-28T01:50:29.582Z,990.29
2022-09-28T01:51:29.898Z,990.31
2022-09-28T01:52:30.149Z,990.34
2022-09-28T01:53:30.421Z,990.27
2022-09-28T01:54:30.701Z,990.28
2022-09-28T01:55:31.003Z,990.24
2022-09-28T01:56:31.300Z,990.31
2022-09-28T01:57:31.576Z,990.26
2022-09-28T01:58:31.953Z,990.27
2022-09-28T01:59:32.176Z,990.25
2022-09-28T02:00:32.522Z,990.25
2022-09-28T02:01:32.754Z,990.24
2022-09-28T02:02:33.109Z,990.23
2022-09-28T02:03:33.269Z,990.21
2022-09-28T02:04:33.547Z,990.24
2022-09-28T02:05:33.834Z,990.21
2022-09-28T02:06:34.140Z,990.19
2022-09-28T02:07:34.394Z,990.19
2022-09-28T02:08:34.689Z,990.23
2022-09-28T02:09:34.987Z,990.23
2022-09-28T02:10:35.253Z,990.24
2022-09-28T02:11:35.563Z,990.25
2022-09-28T02:12:35.819Z,990.25
2022-09-28T02:13:36.090Z,990.25
2022-09-28T02:14:36.371Z,990.23
2022-09-28T02:15:36.665Z,990.23
2022-09-28T02:16:37.052Z,990.25
2022-09-28T02:17:37.286Z,990.27
2022-09-28T02:18:37.557Z,990.26
2022-09-28T02:19:37.866Z,990.27
2022-09-28T02:20:38.103Z,990.31
2022-09-28T02:21:38.426Z,990.27
2022-09-28T02:22:38.706Z,990.29
2022-09-28T02:23:38.954Z,990.25
2022-09-28T02:24:39.252Z,990.29
2022-09-28T02:25:39.528Z,990.29
2022-09-28T02:26:39.836Z,990.32
2022-09-28T02:27:40.090Z,990.31
2022-09-28T02:28:40.355Z,990.32
2022-09-28T02:29:40.642Z,990.30
2022-09-28T02:30:40.954Z,990.31
2022-09-28T02:31:41.304Z,990.28
2022-09-28T02:32:41.521Z,990.34
2022-09-28T02:33:41.794Z,990.28
2022-09-28T02:34:42.086Z,990.27
2022-09-28T02:35:42.361Z,990.34
2022-09-28T02:36:42.680Z,990.30
2022-09-28T02:37:42.922Z,990.29
2022-09-28T02:38:43.224Z,990.30
2022-09-28T02:39:43.498Z,990.35
2022-09-28T02:40:43.811Z,990.32
2022-09-28T02:41:44.094Z,990.33
2022-09-28T02:42:44.348Z,990.38
2022-09-28T02:43:44.661Z,990.35
2022-09-28T02:44:44.913Z,990.36
2022-09-28T02:45:45.266Z,990.38
2022-09-28T02:46:45.516Z,990.35
2022-09-28T02:47:45.777Z,990.39
2022-09-28T02:48:55.860Z,990.37
2022-09-28T02:49:47.407Z,990.40
2022-09-28T02:50:46.693Z,990.34
2022-09-28T02:51:46.992Z,990.38
2022-09-28T02:52:47.287Z,990.34
2022-09-28T02:53:47.563Z,990.38
2022-09-28T02:54:47.846Z,990.37
2022-09-28T02:55:48.122Z,990.37
2022-09-28T02:56:48.473Z,990.39
2022-09-28T02:57:48.734Z,990.38
2022-09-28T02:58:49.006Z,990.42
2022-09-28T02:59:49.285Z,990.37
2022-09-28T03:00:49.585Z,990.43
2022-09-28T03:01:49.922Z,990.38
2022-09-28T03:02:50.094Z,990.41
2022-09-28T03:03:50.363Z,990.39
2022-09-28T03:04:50.643Z,990.39
2022-09-28T03:05:50.947Z,990.39
2022-09-28T03:06:51.246Z,990.47
2022-09-28T03:07:51.486Z,990.50
2022-09-28T03:08:51.775Z,990.40
2022-09-28T03:09:52.054Z,990.40
2022-09-28T03:10:52.339Z,990.41
2022-09-28T03:11:52.655Z,990.43
2022-09-28T03:12:52.901Z,990.43
2022-09-28T03:16:14.628Z,990.47
2022-09-28T03:17:14.894Z,990.52
2022-09-28T03:18:15.175Z,990.48
2022-09-28T03:19:15.511Z,990.49
2022-09-28T03:20:15.745Z,990.49
2022-09-28T03:21:16.030Z,990.52
2022-09-28T03:22:16.337Z,990.50
2022-09-28T03:23:25.318Z,990.49
2022-09-28T03:24:17.817Z,990.49
2022-09-28T03:25:17.114Z,990.47
2022-09-28T03:26:17.401Z,990.46
2022-09-28T03:27:17.698Z,990.42
2022-09-28T03:28:17.939Z,990.40
2022-09-28T03:29:18.349Z,990.42
2022-09-28T03:30:18.498Z,990.40
2022-09-28T03:31:26.345Z,990.44
2022-09-28T03:32:19.117Z,990.43
2022-09-28T03:33:19.364Z,990.43
2022-09-28T03:34:19.658Z,990.42
2022-09-28T03:35:19.955Z,990.42
2022-09-28T03:36:20.247Z,990.42
2022-09-28T03:37:20.566Z,990.43
2022-09-28T03:38:20.946Z,990.38
2022-09-28T03:39:21.061Z,990.44
2022-09-28T03:40:21.399Z,990.45
2022-09-28T03:41:21.742Z,990.41
2022-09-28T03:42:21.917Z,990.42
2022-09-28T03:43:22.154Z,990.44
2022-09-28T03:44:22.470Z,990.46
2022-09-28T03:45:22.770Z,990.52
2022-09-28T03:46:23.051Z,990.46
2022-09-28T03:47:23.293Z,990.45
2022-09-28T03:48:26.660Z,990.43
2022-09-28T03:49:24.834Z,990.42
2022-09-28T03:50:24.155Z,990.42
2022-09-28T03:51:24.453Z,990.41
2022-09-28T03:52:24.719Z,990.41
2022-09-28T03:53:24.996Z,990.44
2022-09-28T03:54:25.235Z,990.44
2022-09-28T03:55:25.516Z,990.47
2022-09-28T03:56:25.797Z,990.47
2022-09-28T03:57:26.094Z,990.43
2022-09-28T03:58:26.375Z,990.43
2022-09-28T03:59:26.698Z,990.44
2022-09-28T04:00:26.958Z,990.48
2022-09-28T04:01:27.351Z,990.43
2022-09-28T04:02:27.542Z,990.46
2022-09-28T04:03:27.816Z,990.45
2022-09-28T04:04:28.124Z,990.46
2022-09-28T04:05:28.412Z,990.47
2022-09-28T04:06:28.714Z,990.47
2022-09-28T04:07:31.098Z,990.44
2022-09-28T04:08:29.276Z,990.44
2022-09-28T04:09:29.619Z,990.49
2022-09-28T04:10:29.887Z,990.45
2022-09-28T04:12:57.209Z,990.43
2022-09-28T04:13:08.151Z,990.47
2022-09-28T04:14:02.463Z,990.49
2022-09-28T04:15:02.735Z,990.47
2022-09-28T04:16:03.075Z,990.47
2022-09-28T04:17:03.334Z,990.48
2022-09-28T04:18:03.642Z,990.51
2022-09-28T04:19:03.932Z,990.51
2022-09-28T04:20:04.271Z,990.44
2022-09-28T04:21:04.521Z,990.46
2022-09-28T04:22:04.834Z,990.41
2022-09-28T04:23:05.121Z,990.42
2022-09-28T04:24:05.412Z,990.43
2022-09-28T04:25:05.724Z,990.39
2022-09-28T04:26:13.524Z,990.41
2022-09-28T04:27:06.405Z,990.42
2022-09-28T04:28:06.610Z,990.47
2022-09-28T04:29:07.096Z,990.46
2022-09-28T04:30:07.254Z,990.46
2022-09-28T04:31:08.454Z,990.47
2022-09-28T04:32:07.917Z,990.47
2022-09-28T04:33:08.168Z,990.51
2022-09-28T04:34:08.451Z,990.51
2022-09-28T04:35:08.775Z,990.50
2022-09-28T04:36:09.042Z,990.54
2022-09-28T04:37:09.331Z,990.50
2022-09-28T04:38:09.637Z,990.53
2022-09-28T04:39:09.980Z,990.53
2022-09-28T04:40:10.293Z,990.53
2022-09-28T04:41:10.552Z,990.55
2022-09-28T04:42:10.840Z,990.56
2022-09-28T04:43:11.142Z,990.53
2022-09-28T04:44:11.431Z,990.54
2022-09-28T04:45:11.740Z,990.55
2022-09-28T04:46:12.089Z,990.57
2022-09-28T04:47:12.372Z,990.59
2022-09-28T04:48:12.634Z,990.56
2022-09-28T04:49:12.955Z,990.55
2022-09-28T04:50:13.282Z,990.54
2022-09-28T04:51:13.605Z,990.54
2022-09-28T04:52:18.240Z,990.59
2022-09-28T04:53:14.124Z,990.60
2022-09-28T04:54:14.412Z,990.56
2022-09-28T04:55:14.737Z,990.56
2022-09-28T04:56:14.972Z,990.58
2022-09-28T04:57:15.291Z,990.67
2022-09-28T04:58:15.635Z,990.60
2022-09-28T04:59:15.916Z,990.66
2022-09-28T05:00:16.280Z,990.61
2022-09-28T05:01:16.598Z,990.61
2022-09-28T05:02:16.771Z,990.61
2022-09-28T05:03:17.026Z,990.63
2022-09-28T05:04:17.313Z,990.63
2022-09-28T05:05:17.643Z,990.65
2022-09-28T05:06:17.952Z,990.68
2022-09-28T05:07:18.269Z,990.68
2022-09-28T05:08:18.556Z,990.68
2022-09-28T05:09:18.832Z,990.65
2022-09-28T05:10:19.175Z,990.71
2022-09-28T05:11:19.458Z,990.71
2022-09-28T05:12:19.784Z,990.72
2022-09-28T05:13:20.135Z,990.67
2022-09-28T05:14:20.413Z,990.70
2022-09-28T05:15:20.723Z,990.70
2022-09-28T05:16:21.116Z,990.66
2022-09-28T05:17:21.385Z,990.69
2022-09-28T05:18:21.708Z,990.71
2022-09-28T05:19:22.026Z,990.75
2022-09-28T05:20:22.349Z,990.73
2022-09-28T05:21:22.621Z,990.72
2022-09-28T05:22:22.935Z,990.73
2022-09-28T05:23:23.256Z,990.71
2022-09-28T05:24:23.586Z,990.73
2022-09-28T05:25:23.937Z,990.73
2022-09-28T05:26:24.217Z,990.76
2022-09-28T05:27:24.556Z,990.69
2022-09-28T05:28:24.829Z,990.75
2022-09-28T05:29:27.993Z,990.75
2022-09-28T05:30:26.420Z,990.75
2022-09-28T05:31:25.654Z,990.73
2022-09-28T05:32:25.976Z,990.74
2022-09-28T05:33:26.300Z,990.73
2022-09-28T05:34:26.621Z,990.79
2022-09-28T05:35:26.987Z,990.78
2022-09-28T05:36:27.327Z,990.76
2022-09-28T05:37:27.638Z,990.76
2022-09-28T05:38:27.854Z,990.73
2022-09-28T05:39:28.225Z,990.77
2022-09-28T05:40:28.488Z,990.74
2022-09-28T05:41:28.788Z,990.74
2022-09-28T05:42:29.041Z,990.72
2022-09-28T05:43:29.362Z,990.73
2022-09-28T05:44:29.583Z,990.71
2022-09-28T05:45:29.899Z,990.74
2022-09-28T05:46:30.108Z,990.77
2022-09-28T05:47:30.330Z,990.73
2022-09-28T05:48:30.685Z,990.72
2022-09-28T05:49:30.929Z,990.73
2022-09-28T05:50:31.182Z,990.73
2022-09-28T05:51:31.502Z,990.69
2022-09-28T05:52:31.809Z,990.73
2022-09-28T05:53:32.143Z,990.76
2022-09-28T05:54:32.402Z,990.77
2022-09-28T05:55:32.719Z,990.78
2022-09-28T05:56:32.927Z,990.74
2022-09-28T05:57:33.269Z,990.69
2022-09-28T05:58:33.618Z,990.71
2022-09-28T05:59:55.288Z,990.71
2022-09-28T06:00:34.261Z,990.76
2022-09-28T06:01:34.654Z,990.74
2022-09-28T06:02:34.890Z,990.74
2022-09-28T06:03:35.082Z,990.73
2022-09-28T06:04:35.438Z,990.77
2022-09-28T06:05:35.811Z,990.71
2022-09-28T06:06:36.109Z,990.69
2022-09-28T06:07:36.471Z,990.74
2022-09-28T06:08:36.750Z,990.72
2022-09-28T06:09:37.121Z,990.74
2022-09-28T06:10:37.430Z,990.74
2022-09-28T06:11:37.706Z,990.71
2022-09-28T06:12:38.040Z,990.76
2022-09-28T06:13:38.327Z,990.79
2022-09-28T06:14:38.650Z,990.81
2022-09-28T06:15:39.042Z,990.84
2022-09-28T06:16:43.078Z,990.80
2022-09-28T06:17:39.505Z,990.81
2022-09-28T06:18:39.841Z,990.81
2022-09-28T06:19:40.170Z,990.84
2022-09-28T06:20:40.541Z,990.80
2022-09-28T06:21:40.862Z,990.82
2022-09-28T06:22:41.178Z,990.79
2022-09-28T06:23:44.545Z,990.83
2022-09-28T06:24:42.718Z,990.85
2022-09-28T06:25:42.078Z,990.84
2022-09-28T06:26:42.297Z,990.84
2022-09-28T06:27:42.618Z,990.83
2022-09-28T06:28:42.944Z,990.85
2022-09-28T06:29:43.256Z,990.87
2022-09-28T06:30:43.671Z,990.87
2022-09-28T06:31:43.875Z,990.91
2022-09-28T06:32:44.147Z,990.90
2022-09-28T06:33:44.459Z,990.92
2022-09-28T06:34:44.792Z,990.95
2022-09-28T06:35:45.286Z,991.00
2022-09-28T06:36:45.449Z,991.01
2022-09-28T06:37:45.749Z,991.00
2022-09-28T06:38:46.074Z,991.05
2022-09-28T06:39:46.409Z,991.01
2022-09-28T06:40:46.805Z,991.01
2022-09-28T06:41:46.963Z,991.03
2022-09-28T06:42:47.270Z,991.03
2022-09-28T06:43:47.578Z,991.05
2022-09-28T06:44:47.879Z,991.08
2022-09-28T06:45:48.230Z,991.05
2022-09-28T06:46:48.534Z,991.05
2022-09-28T06:47:48.861Z,991.04
2022-09-28T06:48:49.205Z,991.10
2022-09-28T06:49:49.474Z,991.11
2022-09-28T06:50:49.791Z,991.18
2022-09-28T06:51:50.126Z,991.08
2022-09-28T06:52:50.431Z,991.14
2022-09-28T06:53:50.753Z,991.14
2022-09-28T06:54:51.092Z,991.15
2022-09-28T06:55:51.451Z,991.15
2022-09-28T06:56:51.754Z,991.13
2022-09-28T06:57:52.106Z,991.13
2022-09-28T06:58:52.417Z,991.15
2022-09-28T06:59:52.725Z,991.09
2022-09-28T07:00:53.070Z,991.19
2022-09-28T07:01:53.388Z,991.15
2022-09-28T07:02:53.655Z,991.17
2022-09-28T07:03:55.829Z,991.16
2022-09-28T07:04:54.244Z,991.19
2022-09-28T07:05:54.594Z,991.21
2022-09-28T07:06:54.914Z,991.21
2022-09-28T07:07:55.262Z,991.27
2022-09-28T07:09:07.529Z,991.28
2022-09-28T07:09:56.836Z,991.28
2022-09-28T07:10:56.088Z,991.26
2022-09-28T07:11:56.365Z,991.29
2022-09-28T07:12:56.689Z,991.27
2022-09-28T07:13:57.030Z,991.28
2022-09-28T07:14:57.406Z,991.30
2022-09-28T07:15:57.708Z,991.31
2022-09-28T07:17:12.302Z,991.36
2022-09-28T07:18:02.709Z,991.41
2022-09-28T07:18:58.557Z,991.38
2022-09-28T07:20:04.243Z,991.35
2022-09-28T07:21:00.116Z,991.38
2022-09-28T07:22:04.798Z,991.38
2022-09-28T07:23:12.452Z,991.39
2022-09-28T07:24:00.902Z,991.40
2022-09-28T07:25:00.265Z,991.45
2022-09-28T07:26:00.607Z,991.43
2022-09-28T07:27:00.932Z,991.42
2022-09-28T07:28:01.254Z,991.45
2022-09-28T07:29:01.607Z,991.44
2022-09-28T07:30:01.923Z,991.46
2022-09-28T07:31:02.306Z,991.50
2022-09-28T07:32:02.483Z,991.49
2022-09-28T07:33:02.815Z,991.47
2022-09-28T07:34:03.158Z,991.48
2022-09-28T07:35:03.486Z,991.48
2022-09-28T07:36:03.833Z,991.51
2022-09-28T07:37:04.143Z,991.54
2022-09-28T07:38:04.438Z,991.53
2022-09-28T07:39:04.763Z,991.56
2022-09-28T07:40:05.172Z,991.53
2022-09-28T07:41:05.412Z,991.58
2022-09-28T07:42:05.706Z,991.55
2022-09-28T07:43:06.014Z,991.51
2022-09-28T07:44:06.454Z,991.55
2022-09-28T07:45:06.667Z,991.56
2022-09-28T07:46:07.031Z,991.56
2022-09-28T07:47:07.188Z,991.61
2022-09-28T07:48:07.550Z,991.57
2022-09-28T07:49:11.430Z,991.67
2022-09-28T07:50:08.053Z,991.63
2022-09-28T07:51:08.388Z,991.66
2022-09-28T07:52:08.704Z,991.65
2022-09-28T07:53:09.046Z,991.69
2022-09-28T07:54:09.380Z,991.67
2022-09-28T07:55:09.762Z,991.69
2022-09-28T07:56:10.057Z,991.76
2022-09-28T07:57:10.374Z,991.74
2022-09-28T07:58:10.677Z,991.74
2022-09-28T07:59:11.018Z,991.78
2022-09-28T08:00:11.336Z,991.75
2022-09-28T08:01:11.774Z,991.80
2022-09-28T08:02:12.046Z,991.82
2022-09-28T08:03:12.227Z,991.81
2022-09-28T08:04:12.575Z,991.80
2022-09-28T08:05:12.919Z,991.85
2022-09-28T08:06:13.272Z,991.80
2022-09-28T08:07:13.571Z,991.81
2022-09-28T08:08:13.900Z,991.82
2022-09-28T08:09:14.334Z,991.84
2022-09-28T08:10:14.510Z,991.88
2022-09-28T08:11:14.860Z,991.84
2022-09-28T08:12:15.188Z,991.92
2022-09-28T08:13:15.528Z,991.88
2022-09-28T08:14:15.908Z,991.92
2022-09-28T08:15:16.188Z,991.87
2022-09-28T08:16:16.630Z,991.87
2022-09-28T08:17:16.838Z,991.93
2022-09-28T08:18:17.120Z,991.94
2022-09-28T08:19:17.590Z,991.94
2022-09-28T08:20:17.781Z,991.92
2022-09-28T08:21:18.137Z,991.95
2022-09-28T08:22:18.450Z,991.91
2022-09-28T08:23:18.768Z,991.88
2022-09-28T08:24:19.251Z,991.90
2022-09-28T08:25:19.362Z,991.87
2022-09-28T08:26:19.732Z,991.87
2022-09-28T08:27:20.050Z,991.99
2022-09-28T08:28:20.278Z,991.86
2022-09-28T08:29:20.503Z,991.80
2022-09-28T08:30:20.873Z,991.84
2022-09-28T08:31:21.232Z,991.85
2022-09-28T08:32:21.525Z,991.86
2022-09-28T08:33:21.874Z,991.93
2022-09-28T08:34:22.185Z,991.90
2022-09-28T08:35:22.506Z,991.96
2022-09-28T08:36:22.830Z,991.94
2022-09-28T08:37:23.177Z,991.94
2022-09-28T08:38:23.480Z,991.91
2022-09-28T08:39:23.813Z,991.98
2022-09-28T08:40:24.232Z,992.03
2022-09-28T08:41:24.420Z,992.00
2022-09-28T08:42:24.643Z,991.97
2022-09-28T08:43:25.004Z,991.96
2022-09-28T08:44:25.297Z,991.96
2022-09-28T08:45:25.634Z,991.99
2022-09-28T08:46:27.143Z,992.05
2022-09-28T08:47:26.233Z,992.01
2022-09-28T08:48:26.440Z,992.03
2022-09-28T08:49:26.830Z,992.01
2022-09-28T08:50:27.110Z,992.06
2022-09-28T08:51:27.470Z,992.05
2022-09-28T08:52:27.773Z,991.99
2022-09-28T08:53:28.112Z,992.03
2022-09-28T08:54:28.462Z,992.00
2022-09-28T08:55:28.817Z,992.02
2022-09-28T08:56:29.113Z,992.03
2022-09-28T08:57:29.442Z,991.99
2022-09-28T08:58:29.793Z,992.06
2022-09-28T08:59:30.132Z,992.03
2022-09-28T09:00:30.465Z,992.06
2022-09-28T09:01:30.843Z,992.03
2022-09-28T09:02:31.198Z,992.05
2022-09-28T09:03:31.376Z,992.09
2022-09-28T09:04:31.708Z,992.09
2022-09-28T09:05:32.043Z,992.09
2022-09-28T09:06:41.387Z,992.14
2022-09-28T09:07:32.627Z,992.09
2022-09-28T09:08:32.994Z,992.14
2022-09-28T09:09:33.205Z,992.16
2022-09-28T09:10:33.526Z,992.17
2022-09-28T09:11:33.905Z,992.19
2022-09-28T09:12:34.134Z,992.14
2022-09-28T09:13:34.377Z,992.15
2022-09-28T09:14:34.610Z,992.17
2022-09-28T09:15:34.868Z,992.13
2022-09-28T09:16:35.139Z,992.17
2022-09-28T09:17:35.314Z,992.21
2022-09-28T09:18:35.643Z,992.19
2022-09-28T09:19:42.959Z,992.20
2022-09-28T09:20:36.208Z,992.26
2022-09-28T09:21:43.578Z,992.26
2022-09-28T09:22:36.875Z,992.28
2022-09-28T09:23:37.188Z,992.30
2022-09-28T09:24:37.603Z,992.26
2022-09-28T09:25:38.657Z,992.22
2022-09-28T09:26:38.188Z,992.18
2022-09-28T09:27:38.548Z,992.25
2022-09-28T09:28:38.847Z,992.24
2022-09-28T09:29:39.197Z,992.27
2022-09-28T09:30:39.514Z,992.27
2022-09-28T09:31:39.849Z,992.27
2022-09-28T09:32:40.183Z,992.27
2022-09-28T09:33:40.464Z,992.23
2022-09-28T09:34:40.782Z,992.23
2022-09-28T09:35:41.075Z,992.31
2022-09-28T09:36:41.407Z,992.31
2022-09-28T09:37:41.744Z,992.31
2022-09-28T09:38:42.075Z,992.26
2022-09-28T09:39:42.411Z,992.33
2022-09-28T09:40:42.784Z,992.34
2022-09-28T09:41:43.098Z,992.37
2022-09-28T09:42:43.336Z,992.32
2022-09-28T09:43:43.647Z,992.32
2022-09-28T09:44:43.856Z,992.40
2022-09-28T09:45:44.240Z,992.31
2022-09-28T09:46:44.522Z,992.31
2022-09-28T09:47:44.966Z,992.31
2022-09-28T09:48:45.155Z,992.34
2022-09-28T09:49:45.484Z,992.36
2022-09-28T09:50:45.808Z,992.41
2022-09-28T09:51:46.149Z,992.41
2022-09-28T09:52:46.534Z,992.37
2022-09-28T09:53:46.855Z,992.33
2022-09-28T09:54:47.150Z,992.37
2022-09-28T09:55:47.487Z,992.34
2022-09-28T09:56:47.830Z,992.32
2022-09-28T09:57:48.200Z,992.36
2022-09-28T09:58:48.513Z,992.36
2022-09-28T09:59:48.820Z,992.35
2022-09-28T10:00:49.125Z,992.36
2022-09-28T10:01:49.590Z,992.36
2022-09-28T10:02:49.933Z,992.34
2022-09-28T10:03:50.128Z,992.38
2022-09-28T10:04:50.407Z,992.36
2022-09-28T10:05:50.759Z,992.40
2022-09-28T10:06:51.120Z,992.38
2022-09-28T10:07:51.451Z,992.41
2022-09-28T10:08:51.744Z,992.38
2022-09-28T10:09:52.111Z,992.42
2022-09-28T10:10:52.388Z,992.42
2022-09-28T10:11:52.758Z,992.44
2022-09-28T10:12:53.059Z,992.40
2022-09-28T10:13:53.409Z,992.46
2022-09-28T10:14:53.751Z,992.45
2022-09-28T10:15:54.091Z,992.45
2022-09-28T10:16:54.459Z,992.41
2022-09-28T10:17:54.786Z,992.45
2022-09-28T10:18:55.102Z,992.43
2022-09-28T10:19:55.447Z,992.43
2022-09-28T10:20:55.723Z,992.38
2022-09-28T10:21:56.074Z,992.40
2022-09-28T10:22:56.383Z,992.37
2022-09-28T10:23:56.602Z,992.40
2022-09-28T10:24:56.959Z,992.41
2022-09-28T10:25:57.273Z,992.42
2022-09-28T10:26:57.578Z,992.40
2022-09-28T10:27:57.934Z,992.46
2022-09-28T10:28:58.221Z,992.38
2022-09-28T10:29:58.550Z,992.43
2022-09-28T10:30:59.001Z,992.48
2022-09-28T10:31:59.183Z,992.41
2022-09-28T10:32:59.591Z,992.41
2022-09-28T10:33:59.758Z,992.50
2022-09-28T10:35:00.110Z,992.46
2022-09-28T10:36:00.451Z,992.45
2022-09-28T10:37:00.780Z,992.46
2022-09-28T10:38:01.245Z,992.47
2022-09-28T10:39:01.431Z,992.49
2022-09-28T10:40:01.743Z,992.46
2022-09-28T10:41:02.065Z,992.45
2022-09-28T10:42:02.285Z,992.44
2022-09-28T10:43:02.663Z,992.46
2022-09-28T10:44:02.964Z,992.50
2022-09-28T10:45:03.195Z,992.49
2022-09-28T10:46:03.513Z,992.54
2022-09-28T10:47:03.755Z,992.55
2022-09-28T10:48:04.133Z,992.48
2022-09-28T10:49:04.422Z,992.49
2022-09-28T10:50:04.776Z,992.50
2022-09-28T10:51:05.078Z,992.48
2022-09-28T10:52:05.415Z,992.55
2022-09-28T10:53:05.785Z,992.49
2022-09-28T10:54:06.106Z,992.49
2022-09-28T10:55:06.402Z,992.52
2022-09-28T10:56:06.755Z,992.51
2022-09-28T10:57:10.318Z,992.48
2022-09-28T10:58:08.396Z,992.57
2022-09-28T10:59:07.612Z,992.50
2022-09-28T11:00:07.964Z,992.52
2022-09-28T11:01:08.348Z,992.56
2022-09-28T11:02:08.590Z,992.56
2022-09-28T11:03:08.867Z,992.59
2022-09-28T11:04:09.219Z,992.54
2022-09-28T11:05:09.526Z,992.56
2022-09-28T11:06:09.880Z,992.55
2022-09-28T11:07:10.649Z,992.57
2022-09-28T11:08:10.524Z,992.60
2022-09-28T11:09:10.854Z,992.56
2022-09-28T11:10:11.144Z,992.59
2022-09-28T11:11:11.474Z,992.57
2022-09-28T11:12:11.818Z,992.58
2022-09-28T11:13:12.186Z,992.58
2022-09-28T11:14:12.474Z,992.58
2022-09-28T11:15:12.815Z,992.54
2022-09-28T11:16:13.192Z,992.55
2022-09-28T11:17:13.454Z,992.55
2022-09-28T11:18:13.839Z,992.55
2022-09-28T11:19:14.174Z,992.57
2022-09-28T11:20:14.464Z,992.52
2022-09-28T11:21:14.799Z,992.61
2022-09-28T11:22:15.129Z,992.57
2022-09-28T11:23:15.487Z,992.53
2022-09-28T11:24:19.151Z,992.48
2022-09-28T11:25:16.045Z,992.51
2022-09-28T11:26:18.768Z,992.49
2022-09-28T11:27:16.639Z,992.54
2022-09-28T11:28:17.068Z,992.55
2022-09-28T11:29:17.250Z,992.46
2022-09-28T11:30:17.478Z,992.52
2022-09-28T11:31:17.924Z,992.52
2022-09-28T11:32:18.092Z,992.48
2022-09-28T11:33:18.350Z,992.54
2022-09-28T11:34:18.758Z,992.49
2022-09-28T11:35:18.981Z,992.41
2022-09-28T11:36:19.307Z,992.41
2022-09-28T11:37:19.676Z,992.41
2022-09-28T11:38:19.985Z,992.41
2022-09-28T11:39:20.353Z,992.48
2022-09-28T11:40:20.743Z,992.45
2022-09-28T11:41:20.910Z,992.48
2022-09-28T11:42:21.246Z,992.49
2022-09-28T11:43:21.611Z,992.49
2022-09-28T11:44:21.886Z,992.43
2022-09-28T11:45:22.302Z,992.47
2022-09-28T11:46:22.544Z,992.43
2022-09-28T11:47:22.777Z,992.49
2022-09-28T11:48:23.090Z,992.52
2022-09-28T11:49:23.428Z,992.50
2022-09-28T11:50:24.741Z,992.53
2022-09-28T11:51:24.070Z,992.55
2022-09-28T11:52:31.952Z,992.51
2022-09-28T11:53:24.768Z,992.48
2022-09-28T11:54:25.092Z,992.53
2022-09-28T11:55:25.411Z,992.55
2022-09-28T11:56:25.752Z,992.52
2022-09-28T11:57:25.972Z,992.52
2022-09-28T11:58:26.309Z,992.48
2022-09-28T11:59:26.618Z,992.49
2022-09-28T12:00:26.942Z,992.50
2022-09-28T12:01:27.278Z,992.52
2022-09-28T12:02:27.732Z,992.57
2022-09-28T12:03:28.064Z,992.53
2022-09-28T12:04:28.301Z,992.53
2022-09-28T12:05:28.498Z,992.55
2022-09-28T12:06:28.815Z,992.55
2022-09-28T12:07:29.170Z,992.56
2022-09-28T12:08:29.389Z,992.54
2022-09-28T12:09:29.928Z,992.57
2022-09-28T12:10:29.972Z,992.57
2022-09-28T12:11:30.343Z,992.61
2022-09-28T12:12:30.554Z,992.60
2022-09-28T12:13:30.912Z,992.58
2022-09-28T12:14:31.129Z,992.57
2022-09-28T12:15:42.144Z,992.59
2022-09-28T12:17:03.611Z,992.59
2022-09-28T12:17:33.033Z,992.61
2022-09-28T12:18:32.352Z,992.59
2022-09-28T12:19:32.564Z,992.60
2022-09-28T12:20:32.902Z,992.58
2022-09-28T12:21:33.229Z,992.59
2022-09-28T12:22:33.487Z,992.63
2022-09-28T12:23:33.718Z,992.56
2022-09-28T12:24:33.937Z,992.61
2022-09-28T12:25:34.272Z,992.55
2022-09-28T12:26:37.303Z,992.57
2022-09-28T12:27:34.850Z,992.58
2022-09-28T12:28:35.214Z,992.56
2022-09-28T12:29:35.434Z,992.53
2022-09-28T12:30:35.789Z,992.51
2022-09-28T12:31:36.011Z,992.52
2022-09-28T12:32:36.351Z,992.53
2022-09-28T12:33:36.833Z,992.55
2022-09-28T12:34:37.012Z,992.53
2022-09-28T12:35:37.363Z,992.54